sensor_id;sensor_type;location;lat;lon;timestamp;P1;durP1;ratioP1;P2;durP2;ratioP2
2656;SDS011;1338;48.176;11.792;2023-02-25T00:02:16;5.43;;;4.60;;
2656;SDS011;1338;48.176;11.792;2023-02-25T00:04:44;4.93;;;4.00;;
2656;SDS011;1338;48.176;11.792;2023-02-25T00:07:12;4.40;;;4.00;;
2656;SDS011;1338;48.176;11.792;2023-02-25T00:09:41;7.10;;;4.23;;
2656;SDS011;1338;48.176;11.792;2023-02-25T00:12:10;5.27;;;4.20;;
2656;SDS011;1338;48.176;11.792;2023-02-25T00:14:38;6.20;;;4.70;;
2656;SDS011;1338;48.176;11.792;2023-02-25T00:17:06;4.83;;;4.27;;
2656;SDS011;1338;48.176;11.792;2023-02-25T00:19:34;5.70;;;5.00;;
2656;SDS011;1338;48.176;11.792;2023-02-25T00:22:03;4.73;;;4.10;;
2656;SDS011;1338;48.176;11.792;2023-02-25T00:24:31;4.50;;;3.63;;
2656;SDS011;1338;48.176;11.792;2023-02-25T00:26:59;4.90;;;4.40;;
2656;SDS011;1338;48.176;11.792;2023-02-25T00:29:28;4.80;;;4.30;;
2656;SDS011;1338;48.176;11.792;2023-02-25T00:31:57;3.80;;;3.50;;
2656;SDS011;1338;48.176;11.792;2023-02-25T00:34:25;3.73;;;3.43;;
2656;SDS011;1338;48.176;11.792;2023-02-25T00:36:54;5.10;;;4.47;;
2656;SDS011;1338;48.176;11.792;2023-02-25T00:39:23;5.70;;;4.20;;
2656;SDS011;1338;48.176;11.792;2023-02-25T00:42:07;4.47;;;4.00;;
2656;SDS011;1338;48.176;11.792;2023-02-25T00:44:37;4.50;;;3.73;;
2656;SDS011;1338;48.176;11.792;2023-02-25T00:47:05;4.23;;;3.80;;
2656;SDS011;1338;48.176;11.792;2023-02-25T00:49:33;5.13;;;4.50;;
2656;SDS011;1338;48.176;11.792;2023-02-25T00:52:02;3.90;;;3.50;;
2656;SDS011;1338;48.176;11.792;2023-02-25T00:54:30;5.17;;;4.20;;
2656;SDS011;1338;48.176;11.792;2023-02-25T00:57:01;4.80;;;3.80;;
2656;SDS011;1338;48.176;11.792;2023-02-25T00:59:30;4.50;;;4.10;;
2656;SDS011;1338;48.176;11.792;2023-02-25T01:02:00;4.77;;;4.27;;
2656;SDS011;1338;48.176;11.792;2023-02-25T01:04:28;4.47;;;4.07;;
2656;SDS011;1338;48.176;11.792;2023-02-25T01:06:56;5.83;;;4.47;;
2656;SDS011;1338;48.176;11.792;2023-02-25T01:09:24;3.93;;;3.53;;
2656;SDS011;1338;48.176;11.792;2023-02-25T01:11:55;3.50;;;3.20;;
2656;SDS011;1338;48.176;11.792;2023-02-25T01:14:24;3.70;;;3.23;;
2656;SDS011;1338;48.176;11.792;2023-02-25T01:16:52;3.33;;;3.03;;
2656;SDS011;1338;48.176;11.792;2023-02-25T01:19:24;3.87;;;3.57;;
2656;SDS011;1338;48.176;11.792;2023-02-25T01:21:53;3.90;;;3.60;;
2656;SDS011;1338;48.176;11.792;2023-02-25T01:24:23;3.80;;;3.40;;
2656;SDS011;1338;48.176;11.792;2023-02-25T01:26:54;4.97;;;4.00;;
2656;SDS011;1338;48.176;11.792;2023-02-25T01:29:24;3.40;;;3.10;;
2656;SDS011;1338;48.176;11.792;2023-02-25T01:31:54;5.27;;;4.30;;
2656;SDS011;1338;48.176;11.792;2023-02-25T01:34:26;6.30;;;3.77;;
2656;SDS011;1338;48.176;11.792;2023-02-25T01:36:55;4.23;;;3.50;;
2656;SDS011;1338;48.176;11.792;2023-02-25T01:39:23;5.50;;;4.60;;
2656;SDS011;1338;48.176;11.792;2023-02-25T01:41:53;6.60;;;4.47;;
2656;SDS011;1338;48.176;11.792;2023-02-25T01:44:27;4.77;;;4.00;;
2656;SDS011;1338;48.176;11.792;2023-02-25T01:46:56;5.20;;;4.20;;
2656;SDS011;1338;48.176;11.792;2023-02-25T01:49:28;7.03;;;5.30;;
2656;SDS011;1338;48.176;11.792;2023-02-25T01:52:02;4.83;;;4.07;;
2656;SDS011;1338;48.176;11.792;2023-02-25T01:54:35;4.70;;;3.90;;
2656;SDS011;1338;48.176;11.792;2023-02-25T01:57:05;4.33;;;3.90;;
2656;SDS011;1338;48.176;11.792;2023-02-25T01:59:35;7.10;;;4.40;;
2656;SDS011;1338;48.176;11.792;2023-02-25T02:02:04;5.13;;;3.83;;
2656;SDS011;1338;48.176;11.792;2023-02-25T02:04:36;4.50;;;4.10;;
2656;SDS011;1338;48.176;11.792;2023-02-25T02:07:05;5.47;;;4.30;;
2656;SDS011;1338;48.176;11.792;2023-02-25T02:09:33;5.53;;;4.90;;
2656;SDS011;1338;48.176;11.792;2023-02-25T02:12:03;5.03;;;4.20;;
2656;SDS011;1338;48.176;11.792;2023-02-25T02:14:33;5.80;;;5.00;;
2656;SDS011;1338;48.176;11.792;2023-02-25T02:17:10;6.13;;;5.40;;
2656;SDS011;1338;48.176;11.792;2023-02-25T02:19:54;6.27;;;5.67;;
2656;SDS011;1338;48.176;11.792;2023-02-25T02:22:37;5.20;;;4.70;;
2656;SDS011;1338;48.176;11.792;2023-02-25T02:28:46;5.03;;;4.37;;
2656;SDS011;1338;48.176;11.792;2023-02-25T02:31:38;5.60;;;4.90;;
2656;SDS011;1338;48.176;11.792;2023-02-25T02:34:19;6.30;;;5.10;;
2656;SDS011;1338;48.176;11.792;2023-02-25T02:37:03;6.77;;;6.17;;
2656;SDS011;1338;48.176;11.792;2023-02-25T02:39:43;7.17;;;5.30;;
2656;SDS011;1338;48.176;11.792;2023-02-25T02:42:20;6.03;;;4.90;;
2656;SDS011;1338;48.176;11.792;2023-02-25T02:44:59;6.80;;;4.80;;
2656;SDS011;1338;48.176;11.792;2023-02-25T02:47:34;8.00;;;5.77;;
2656;SDS011;1338;48.176;11.792;2023-02-25T02:50:05;6.73;;;5.50;;
2656;SDS011;1338;48.176;11.792;2023-02-25T02:52:36;7.93;;;5.80;;
2656;SDS011;1338;48.176;11.792;2023-02-25T02:55:10;7.97;;;6.20;;
2656;SDS011;1338;48.176;11.792;2023-02-25T02:57:50;6.90;;;5.80;;
2656;SDS011;1338;48.176;11.792;2023-02-25T03:00:24;7.93;;;6.30;;
2656;SDS011;1338;48.176;11.792;2023-02-25T03:02:57;6.20;;;5.53;;
2656;SDS011;1338;48.176;11.792;2023-02-25T03:05:28;7.80;;;6.07;;
2656;SDS011;1338;48.176;11.792;2023-02-25T03:08:02;8.70;;;5.63;;
2656;SDS011;1338;48.176;11.792;2023-02-25T03:10:34;6.47;;;5.73;;
2656;SDS011;1338;48.176;11.792;2023-02-25T03:13:03;5.77;;;5.17;;
2656;SDS011;1338;48.176;11.792;2023-02-25T03:15:32;6.80;;;4.50;;
2656;SDS011;1338;48.176;11.792;2023-02-25T03:18:02;4.40;;;4.00;;
2656;SDS011;1338;48.176;11.792;2023-02-25T03:20:35;5.03;;;4.57;;
2656;SDS011;1338;48.176;11.792;2023-02-25T03:23:08;4.50;;;4.00;;
2656;SDS011;1338;48.176;11.792;2023-02-25T03:25:40;5.70;;;4.00;;
2656;SDS011;1338;48.176;11.792;2023-02-25T03:28:19;5.73;;;3.93;;
2656;SDS011;1338;48.176;11.792;2023-02-25T03:30:55;5.23;;;4.43;;
2656;SDS011;1338;48.176;11.792;2023-02-25T03:33:30;5.37;;;4.13;;
2656;SDS011;1338;48.176;11.792;2023-02-25T03:36:04;4.73;;;4.33;;
2656;SDS011;1338;48.176;11.792;2023-02-25T03:38:40;4.10;;;3.70;;
2656;SDS011;1338;48.176;11.792;2023-02-25T03:41:11;5.20;;;3.60;;
2656;SDS011;1338;48.176;11.792;2023-02-25T03:43:43;3.90;;;3.60;;
2656;SDS011;1338;48.176;11.792;2023-02-25T03:46:13;3.87;;;3.47;;
2656;SDS011;1338;48.176;11.792;2023-02-25T03:48:44;3.67;;;3.37;;
2656;SDS011;1338;48.176;11.792;2023-02-25T03:51:14;3.97;;;3.57;;
2656;SDS011;1338;48.176;11.792;2023-02-25T03:53:46;5.47;;;3.73;;
2656;SDS011;1338;48.176;11.792;2023-02-25T03:56:19;3.80;;;3.40;;
2656;SDS011;1338;48.176;11.792;2023-02-25T03:58:48;4.23;;;3.80;;
2656;SDS011;1338;48.176;11.792;2023-02-25T04:01:20;4.20;;;3.73;;
2656;SDS011;1338;48.176;11.792;2023-02-25T04:03:53;4.47;;;3.83;;
2656;SDS011;1338;48.176;11.792;2023-02-25T04:06:22;3.70;;;3.40;;
2656;SDS011;1338;48.176;11.792;2023-02-25T04:08:51;4.60;;;3.77;;
2656;SDS011;1338;48.176;11.792;2023-02-25T04:11:19;4.30;;;3.90;;
2656;SDS011;1338;48.176;11.792;2023-02-25T04:13:47;4.87;;;4.33;;
2656;SDS011;1338;48.176;11.792;2023-02-25T04:16:16;5.83;;;4.00;;
2656;SDS011;1338;48.176;11.792;2023-02-25T04:18:45;4.63;;;4.07;;
2656;SDS011;1338;48.176;11.792;2023-02-25T04:21:23;3.93;;;3.60;;
2656;SDS011;1338;48.176;11.792;2023-02-25T04:23:55;3.73;;;3.30;;
2656;SDS011;1338;48.176;11.792;2023-02-25T04:26:23;5.53;;;4.20;;
2656;SDS011;1338;48.176;11.792;2023-02-25T04:28:52;4.63;;;4.13;;
2656;SDS011;1338;48.176;11.792;2023-02-25T04:31:20;5.87;;;4.03;;
2656;SDS011;1338;48.176;11.792;2023-02-25T04:33:48;5.30;;;4.80;;
2656;SDS011;1338;48.176;11.792;2023-02-25T04:36:20;4.43;;;3.60;;
2656;SDS011;1338;48.176;11.792;2023-02-25T04:38:52;6.13;;;4.37;;
2656;SDS011;1338;48.176;11.792;2023-02-25T04:41:21;6.77;;;4.67;;
2656;SDS011;1338;48.176;11.792;2023-02-25T04:43:50;6.00;;;5.10;;
2656;SDS011;1338;48.176;11.792;2023-02-25T04:46:18;5.37;;;4.70;;
2656;SDS011;1338;48.176;11.792;2023-02-25T04:48:46;6.23;;;4.50;;
2656;SDS011;1338;48.176;11.792;2023-02-25T04:51:14;5.63;;;4.60;;
2656;SDS011;1338;48.176;11.792;2023-02-25T04:53:44;6.50;;;5.20;;
2656;SDS011;1338;48.176;11.792;2023-02-25T04:56:13;6.37;;;5.23;;
2656;SDS011;1338;48.176;11.792;2023-02-25T04:58:41;7.30;;;6.60;;
2656;SDS011;1338;48.176;11.792;2023-02-25T05:01:09;5.53;;;4.80;;
2656;SDS011;1338;48.176;11.792;2023-02-25T05:03:39;6.53;;;5.30;;
2656;SDS011;1338;48.176;11.792;2023-02-25T05:06:07;7.40;;;6.20;;
2656;SDS011;1338;48.176;11.792;2023-02-25T05:08:35;8.80;;;6.20;;
2656;SDS011;1338;48.176;11.792;2023-02-25T05:11:05;7.50;;;6.80;;
2656;SDS011;1338;48.176;11.792;2023-02-25T05:13:33;7.30;;;5.97;;
2656;SDS011;1338;48.176;11.792;2023-02-25T05:16:02;9.27;;;7.00;;
2656;SDS011;1338;48.176;11.792;2023-02-25T05:18:33;6.10;;;4.87;;
2656;SDS011;1338;48.176;11.792;2023-02-25T05:21:02;10.93;;;7.20;;
2656;SDS011;1338;48.176;11.792;2023-02-25T05:23:31;9.17;;;7.13;;
2656;SDS011;1338;48.176;11.792;2023-02-25T05:25:59;10.77;;;7.83;;
2656;SDS011;1338;48.176;11.792;2023-02-25T05:28:28;9.03;;;6.53;;
2656;SDS011;1338;48.176;11.792;2023-02-25T05:30:57;14.33;;;10.40;;
2656;SDS011;1338;48.176;11.792;2023-02-25T05:33:25;12.13;;;7.97;;
2656;SDS011;1338;48.176;11.792;2023-02-25T05:35:53;8.63;;;6.70;;
2656;SDS011;1338;48.176;11.792;2023-02-25T05:38:21;5.57;;;4.97;;
2656;SDS011;1338;48.176;11.792;2023-02-25T05:40:49;11.30;;;6.60;;
2656;SDS011;1338;48.176;11.792;2023-02-25T05:43:18;10.47;;;7.83;;
2656;SDS011;1338;48.176;11.792;2023-02-25T05:45:52;10.03;;;6.93;;
2656;SDS011;1338;48.176;11.792;2023-02-25T05:48:20;12.20;;;8.17;;
2656;SDS011;1338;48.176;11.792;2023-02-25T05:50:49;8.97;;;6.50;;
2656;SDS011;1338;48.176;11.792;2023-02-25T05:53:17;8.37;;;6.50;;
2656;SDS011;1338;48.176;11.792;2023-02-25T05:55:46;12.10;;;7.97;;
2656;SDS011;1338;48.176;11.792;2023-02-25T05:58:14;11.23;;;9.10;;
2656;SDS011;1338;48.176;11.792;2023-02-25T06:00:42;11.33;;;8.13;;
2656;SDS011;1338;48.176;11.792;2023-02-25T06:03:11;12.67;;;7.60;;
2656;SDS011;1338;48.176;11.792;2023-02-25T06:05:40;11.30;;;7.70;;
2656;SDS011;1338;48.176;11.792;2023-02-25T06:08:08;13.80;;;7.90;;
2656;SDS011;1338;48.176;11.792;2023-02-25T06:10:37;10.63;;;8.73;;
2656;SDS011;1338;48.176;11.792;2023-02-25T06:13:05;9.67;;;7.30;;
2656;SDS011;1338;48.176;11.792;2023-02-25T06:15:35;11.63;;;7.90;;
2656;SDS011;1338;48.176;11.792;2023-02-25T06:18:04;11.33;;;8.63;;
2656;SDS011;1338;48.176;11.792;2023-02-25T06:20:33;14.47;;;8.33;;
2656;SDS011;1338;48.176;11.792;2023-02-25T06:23:02;12.43;;;9.17;;
2656;SDS011;1338;48.176;11.792;2023-02-25T06:25:30;10.93;;;7.50;;
2656;SDS011;1338;48.176;11.792;2023-02-25T06:27:58;9.30;;;7.27;;
2656;SDS011;1338;48.176;11.792;2023-02-25T06:30:27;6.93;;;5.23;;
2656;SDS011;1338;48.176;11.792;2023-02-25T06:32:56;8.67;;;5.83;;
2656;SDS011;1338;48.176;11.792;2023-02-25T06:35:24;7.00;;;5.00;;
2656;SDS011;1338;48.176;11.792;2023-02-25T06:37:54;6.73;;;5.20;;
2656;SDS011;1338;48.176;11.792;2023-02-25T06:40:23;8.70;;;5.10;;
2656;SDS011;1338;48.176;11.792;2023-02-25T06:42:52;7.50;;;5.10;;
2656;SDS011;1338;48.176;11.792;2023-02-25T06:45:20;5.50;;;4.33;;
2656;SDS011;1338;48.176;11.792;2023-02-25T06:47:49;7.23;;;5.53;;
2656;SDS011;1338;48.176;11.792;2023-02-25T06:50:17;7.30;;;5.40;;
2656;SDS011;1338;48.176;11.792;2023-02-25T06:52:45;7.90;;;6.13;;
2656;SDS011;1338;48.176;11.792;2023-02-25T06:55:15;9.83;;;6.33;;
2656;SDS011;1338;48.176;11.792;2023-02-25T06:57:43;8.23;;;6.57;;
2656;SDS011;1338;48.176;11.792;2023-02-25T07:00:11;10.10;;;7.43;;
2656;SDS011;1338;48.176;11.792;2023-02-25T07:02:40;10.70;;;7.90;;
2656;SDS011;1338;48.176;11.792;2023-02-25T07:05:08;10.57;;;7.27;;
2656;SDS011;1338;48.176;11.792;2023-02-25T07:07:36;10.17;;;8.43;;
2656;SDS011;1338;48.176;11.792;2023-02-25T07:10:05;9.70;;;7.33;;
2656;SDS011;1338;48.176;11.792;2023-02-25T07:12:35;10.87;;;7.90;;
2656;SDS011;1338;48.176;11.792;2023-02-25T07:15:03;11.70;;;8.60;;
2656;SDS011;1338;48.176;11.792;2023-02-25T07:17:32;11.03;;;7.37;;
2656;SDS011;1338;48.176;11.792;2023-02-25T07:20:00;8.77;;;7.87;;
2656;SDS011;1338;48.176;11.792;2023-02-25T07:22:29;10.23;;;7.60;;
2656;SDS011;1338;48.176;11.792;2023-02-25T07:24:57;12.17;;;8.00;;
2656;SDS011;1338;48.176;11.792;2023-02-25T07:27:25;8.20;;;7.00;;
2656;SDS011;1338;48.176;11.792;2023-02-25T07:29:54;9.67;;;8.37;;
2656;SDS011;1338;48.176;11.792;2023-02-25T07:32:22;9.07;;;6.67;;
2656;SDS011;1338;48.176;11.792;2023-02-25T07:34:51;11.10;;;6.80;;
2656;SDS011;1338;48.176;11.792;2023-02-25T07:37:19;12.63;;;7.20;;
2656;SDS011;1338;48.176;11.792;2023-02-25T07:39:47;9.53;;;6.63;;
2656;SDS011;1338;48.176;11.792;2023-02-25T07:42:15;8.10;;;6.47;;
2656;SDS011;1338;48.176;11.792;2023-02-25T07:44:46;7.87;;;6.83;;
2656;SDS011;1338;48.176;11.792;2023-02-25T07:47:15;14.50;;;10.40;;
2656;SDS011;1338;48.176;11.792;2023-02-25T07:49:44;10.20;;;7.40;;
2656;SDS011;1338;48.176;11.792;2023-02-25T07:52:12;10.17;;;8.10;;
2656;SDS011;1338;48.176;11.792;2023-02-25T07:54:41;11.70;;;8.57;;
2656;SDS011;1338;48.176;11.792;2023-02-25T07:57:09;10.07;;;8.00;;
2656;SDS011;1338;48.176;11.792;2023-02-25T07:59:37;11.13;;;7.33;;
2656;SDS011;1338;48.176;11.792;2023-02-25T08:02:07;10.17;;;8.03;;
2656;SDS011;1338;48.176;11.792;2023-02-25T08:04:43;8.93;;;7.00;;
2656;SDS011;1338;48.176;11.792;2023-02-25T08:07:11;12.13;;;8.27;;
2656;SDS011;1338;48.176;11.792;2023-02-25T08:09:39;11.17;;;8.60;;
2656;SDS011;1338;48.176;11.792;2023-02-25T08:12:09;10.80;;;7.83;;
2656;SDS011;1338;48.176;11.792;2023-02-25T08:14:37;9.80;;;7.80;;
2656;SDS011;1338;48.176;11.792;2023-02-25T08:17:05;11.60;;;7.90;;
2656;SDS011;1338;48.176;11.792;2023-02-25T08:19:33;9.80;;;8.60;;
2656;SDS011;1338;48.176;11.792;2023-02-25T08:22:03;9.17;;;6.40;;
2656;SDS011;1338;48.176;11.792;2023-02-25T08:24:31;10.07;;;7.53;;
2656;SDS011;1338;48.176;11.792;2023-02-25T08:26:59;8.73;;;6.13;;
2656;SDS011;1338;48.176;11.792;2023-02-25T08:29:27;9.90;;;7.30;;
2656;SDS011;1338;48.176;11.792;2023-02-25T08:31:56;9.50;;;6.90;;
2656;SDS011;1338;48.176;11.792;2023-02-25T08:34:24;7.43;;;6.17;;
2656;SDS011;1338;48.176;11.792;2023-02-25T08:36:52;7.00;;;5.13;;
2656;SDS011;1338;48.176;11.792;2023-02-25T08:39:22;6.53;;;5.53;;
2656;SDS011;1338;48.176;11.792;2023-02-25T08:41:50;6.40;;;5.70;;
2656;SDS011;1338;48.176;11.792;2023-02-25T08:44:18;7.17;;;5.77;;
2656;SDS011;1338;48.176;11.792;2023-02-25T08:46:46;8.73;;;6.30;;
2656;SDS011;1338;48.176;11.792;2023-02-25T08:49:14;9.50;;;6.10;;
2656;SDS011;1338;48.176;11.792;2023-02-25T08:51:42;9.80;;;6.87;;
2656;SDS011;1338;48.176;11.792;2023-02-25T08:54:11;5.83;;;5.10;;
2656;SDS011;1338;48.176;11.792;2023-02-25T08:56:41;6.97;;;6.13;;
2656;SDS011;1338;48.176;11.792;2023-02-25T08:59:11;7.97;;;6.47;;
2656;SDS011;1338;48.176;11.792;2023-02-25T09:01:41;8.00;;;5.37;;
2656;SDS011;1338;48.176;11.792;2023-02-25T09:04:16;6.83;;;5.10;;
2656;SDS011;1338;48.176;11.792;2023-02-25T09:06:45;6.97;;;4.97;;
2656;SDS011;1338;48.176;11.792;2023-02-25T09:09:13;7.50;;;5.50;;
2656;SDS011;1338;48.176;11.792;2023-02-25T09:11:44;5.60;;;4.60;;
2656;SDS011;1338;48.176;11.792;2023-02-25T09:14:13;7.07;;;5.40;;
2656;SDS011;1338;48.176;11.792;2023-02-25T09:16:41;8.60;;;5.00;;
2656;SDS011;1338;48.176;11.792;2023-02-25T09:19:09;8.33;;;5.60;;
2656;SDS011;1338;48.176;11.792;2023-02-25T09:21:38;6.53;;;4.90;;
2656;SDS011;1338;48.176;11.792;2023-02-25T09:24:07;10.53;;;5.50;;
2656;SDS011;1338;48.176;11.792;2023-02-25T09:26:35;5.70;;;5.13;;
2656;SDS011;1338;48.176;11.792;2023-02-25T09:29:05;5.13;;;4.63;;
2656;SDS011;1338;48.176;11.792;2023-02-25T09:31:34;9.97;;;5.70;;
2656;SDS011;1338;48.176;11.792;2023-02-25T09:34:05;7.00;;;5.90;;
2656;SDS011;1338;48.176;11.792;2023-02-25T09:36:34;7.50;;;5.60;;
2656;SDS011;1338;48.176;11.792;2023-02-25T09:39:02;10.50;;;5.80;;
2656;SDS011;1338;48.176;11.792;2023-02-25T09:41:38;13.30;;;6.27;;
2656;SDS011;1338;48.176;11.792;2023-02-25T09:44:13;6.63;;;4.30;;
2656;SDS011;1338;48.176;11.792;2023-02-25T09:46:46;7.40;;;5.10;;
2656;SDS011;1338;48.176;11.792;2023-02-25T09:49:22;6.23;;;4.20;;
2656;SDS011;1338;48.176;11.792;2023-02-25T09:51:57;4.37;;;3.70;;
2656;SDS011;1338;48.176;11.792;2023-02-25T09:54:31;5.40;;;4.90;;
2656;SDS011;1338;48.176;11.792;2023-02-25T09:57:04;5.10;;;4.50;;
2656;SDS011;1338;48.176;11.792;2023-02-25T09:59:38;5.47;;;4.30;;
2656;SDS011;1338;48.176;11.792;2023-02-25T10:02:14;4.43;;;4.03;;
2656;SDS011;1338;48.176;11.792;2023-02-25T10:04:53;5.60;;;4.00;;
2656;SDS011;1338;48.176;11.792;2023-02-25T10:07:33;5.10;;;3.23;;
2656;SDS011;1338;48.176;11.792;2023-02-25T10:10:07;3.93;;;3.40;;
2656;SDS011;1338;48.176;11.792;2023-02-25T10:12:44;8.63;;;4.10;;
2656;SDS011;1338;48.176;11.792;2023-02-25T10:15:23;5.17;;;3.87;;
2656;SDS011;1338;48.176;11.792;2023-02-25T10:18:10;7.40;;;3.67;;
2656;SDS011;1338;48.176;11.792;2023-02-25T10:20:48;5.27;;;4.03;;
2656;SDS011;1338;48.176;11.792;2023-02-25T10:23:31;3.87;;;3.47;;
2656;SDS011;1338;48.176;11.792;2023-02-25T10:26:11;7.20;;;3.70;;
2656;SDS011;1338;48.176;11.792;2023-02-25T10:28:45;4.60;;;3.43;;
2656;SDS011;1338;48.176;11.792;2023-02-25T10:31:18;3.43;;;3.13;;
2656;SDS011;1338;48.176;11.792;2023-02-25T10:33:50;5.23;;;4.07;;
2656;SDS011;1338;48.176;11.792;2023-02-25T10:36:20;3.80;;;3.47;;
2656;SDS011;1338;48.176;11.792;2023-02-25T10:38:54;3.87;;;3.33;;
2656;SDS011;1338;48.176;11.792;2023-02-25T10:41:23;4.63;;;3.43;;
2656;SDS011;1338;48.176;11.792;2023-02-25T10:43:53;3.97;;;3.30;;
2656;SDS011;1338;48.176;11.792;2023-02-25T10:46:24;4.90;;;3.40;;
2656;SDS011;1338;48.176;11.792;2023-02-25T10:48:57;4.83;;;4.27;;
2656;SDS011;1338;48.176;11.792;2023-02-25T10:51:27;4.97;;;3.63;;
2656;SDS011;1338;48.176;11.792;2023-02-25T10:54:03;6.30;;;4.03;;
2656;SDS011;1338;48.176;11.792;2023-02-25T10:56:33;7.33;;;3.93;;
2656;SDS011;1338;48.176;11.792;2023-02-25T10:59:19;3.73;;;3.10;;
2656;SDS011;1338;48.176;11.792;2023-02-25T11:01:55;3.83;;;3.40;;
2656;SDS011;1338;48.176;11.792;2023-02-25T11:04:27;6.10;;;3.30;;
2656;SDS011;1338;48.176;11.792;2023-02-25T11:06:57;4.07;;;3.50;;
2656;SDS011;1338;48.176;11.792;2023-02-25T11:09:26;6.17;;;3.43;;
2656;SDS011;1338;48.176;11.792;2023-02-25T11:11:57;4.23;;;3.63;;
2656;SDS011;1338;48.176;11.792;2023-02-25T11:14:28;7.73;;;3.73;;
2656;SDS011;1338;48.176;11.792;2023-02-25T11:17:02;3.90;;;3.10;;
2656;SDS011;1338;48.176;11.792;2023-02-25T11:19:34;4.23;;;2.90;;
2656;SDS011;1338;48.176;11.792;2023-02-25T11:22:06;4.73;;;2.80;;
2656;SDS011;1338;48.176;11.792;2023-02-25T11:24:37;2.80;;;2.37;;
2656;SDS011;1338;48.176;11.792;2023-02-25T11:27:17;3.97;;;2.70;;
2656;SDS011;1338;48.176;11.792;2023-02-25T11:29:52;3.07;;;2.87;;
2656;SDS011;1338;48.176;11.792;2023-02-25T11:32:28;5.20;;;3.03;;
2656;SDS011;1338;48.176;11.792;2023-02-25T11:35:01;4.00;;;2.87;;
2656;SDS011;1338;48.176;11.792;2023-02-25T11:37:35;5.73;;;2.80;;
2656;SDS011;1338;48.176;11.792;2023-02-25T11:40:19;5.20;;;3.00;;
2656;SDS011;1338;48.176;11.792;2023-02-25T11:42:59;3.83;;;2.80;;
2656;SDS011;1338;48.176;11.792;2023-02-25T11:45:29;3.87;;;2.90;;
2656;SDS011;1338;48.176;11.792;2023-02-25T11:48:00;3.33;;;2.93;;
2656;SDS011;1338;48.176;11.792;2023-02-25T11:50:31;11.60;;;3.73;;
2656;SDS011;1338;48.176;11.792;2023-02-25T11:53:06;3.30;;;2.93;;
2656;SDS011;1338;48.176;11.792;2023-02-25T11:55:48;3.50;;;2.67;;
2656;SDS011;1338;48.176;11.792;2023-02-25T11:58:27;2.90;;;2.70;;
2656;SDS011;1338;48.176;11.792;2023-02-25T12:01:01;3.93;;;3.33;;
2656;SDS011;1338;48.176;11.792;2023-02-25T12:03:54;6.03;;;3.60;;
2656;SDS011;1338;48.176;11.792;2023-02-25T12:12:54;3.93;;;2.57;;
2656;SDS011;1338;48.176;11.792;2023-02-25T12:25:09;2.40;;;2.03;;
2656;SDS011;1338;48.176;11.792;2023-02-25T12:31:17;2.60;;;2.00;;
2656;SDS011;1338;48.176;11.792;2023-02-25T12:34:18;3.00;;;2.20;;
2656;SDS011;1338;48.176;11.792;2023-02-25T12:37:09;2.30;;;2.10;;
2656;SDS011;1338;48.176;11.792;2023-02-25T12:39:48;2.00;;;1.70;;
2656;SDS011;1338;48.176;11.792;2023-02-25T12:42:29;3.50;;;2.40;;
2656;SDS011;1338;48.176;11.792;2023-02-25T12:51:15;3.10;;;2.47;;
2656;SDS011;1338;48.176;11.792;2023-02-25T12:54:06;2.30;;;2.10;;
2656;SDS011;1338;48.176;11.792;2023-02-25T12:56:55;4.20;;;2.50;;
2656;SDS011;1338;48.176;11.792;2023-02-25T12:59:41;2.43;;;2.23;;
2656;SDS011;1338;48.176;11.792;2023-02-25T13:02:35;2.83;;;2.63;;
2656;SDS011;1338;48.176;11.792;2023-02-25T13:05:21;2.50;;;2.30;;
2656;SDS011;1338;48.176;11.792;2023-02-25T13:08:13;2.30;;;2.10;;
2656;SDS011;1338;48.176;11.792;2023-02-25T13:10:53;3.27;;;2.63;;
2656;SDS011;1338;48.176;11.792;2023-02-25T13:13:29;3.70;;;2.53;;
2656;SDS011;1338;48.176;11.792;2023-02-25T13:16:25;3.17;;;2.37;;
2656;SDS011;1338;48.176;11.792;2023-02-25T13:19:12;5.80;;;2.33;;
2656;SDS011;1338;48.176;11.792;2023-02-25T13:21:57;3.43;;;2.80;;
2656;SDS011;1338;48.176;11.792;2023-02-25T13:24:36;3.20;;;2.00;;
2656;SDS011;1338;48.176;11.792;2023-02-25T13:27:13;2.27;;;2.07;;
2656;SDS011;1338;48.176;11.792;2023-02-25T13:30:20;2.73;;;2.10;;
2656;SDS011;1338;48.176;11.792;2023-02-25T13:33:01;2.30;;;2.10;;
2656;SDS011;1338;48.176;11.792;2023-02-25T13:35:42;2.60;;;2.10;;
2656;SDS011;1338;48.176;11.792;2023-02-25T13:38:26;2.13;;;1.93;;
2656;SDS011;1338;48.176;11.792;2023-02-25T13:47:01;2.13;;;1.93;;
2656;SDS011;1338;48.176;11.792;2023-02-25T13:50:02;2.60;;;2.33;;
2656;SDS011;1338;48.176;11.792;2023-02-25T13:53:12;4.53;;;2.60;;
2656;SDS011;1338;48.176;11.792;2023-02-25T13:58:57;2.90;;;2.60;;
2656;SDS011;1338;48.176;11.792;2023-02-25T14:01:41;3.00;;;2.80;;
2656;SDS011;1338;48.176;11.792;2023-02-25T14:04:38;2.87;;;2.57;;
2656;SDS011;1338;48.176;11.792;2023-02-25T14:07:30;3.80;;;2.70;;
2656;SDS011;1338;48.176;11.792;2023-02-25T14:10:12;2.87;;;2.43;;
2656;SDS011;1338;48.176;11.792;2023-02-25T14:12:53;3.70;;;2.70;;
2656;SDS011;1338;48.176;11.792;2023-02-25T14:15:41;3.40;;;3.07;;
2656;SDS011;1338;48.176;11.792;2023-02-25T14:18:19;3.73;;;2.80;;
2656;SDS011;1338;48.176;11.792;2023-02-25T14:20:58;3.30;;;3.00;;
2656;SDS011;1338;48.176;11.792;2023-02-25T14:23:43;3.87;;;2.73;;
2656;SDS011;1338;48.176;11.792;2023-02-25T14:26:20;3.90;;;2.80;;
2656;SDS011;1338;48.176;11.792;2023-02-25T14:28:59;2.97;;;2.70;;
2656;SDS011;1338;48.176;11.792;2023-02-25T14:31:36;3.00;;;2.80;;
2656;SDS011;1338;48.176;11.792;2023-02-25T14:34:22;2.90;;;2.50;;
2656;SDS011;1338;48.176;11.792;2023-02-25T14:37:06;3.50;;;2.17;;
2656;SDS011;1338;48.176;11.792;2023-02-25T14:39:45;1.97;;;1.87;;
2656;SDS011;1338;48.176;11.792;2023-02-25T14:42:25;3.07;;;2.47;;
2656;SDS011;1338;48.176;11.792;2023-02-25T14:45:04;3.73;;;2.83;;
2656;SDS011;1338;48.176;11.792;2023-02-25T14:47:47;4.23;;;2.50;;
2656;SDS011;1338;48.176;11.792;2023-02-25T14:50:21;3.33;;;2.33;;
2656;SDS011;1338;48.176;11.792;2023-02-25T14:52:59;2.60;;;2.33;;
2656;SDS011;1338;48.176;11.792;2023-02-25T14:58:59;2.37;;;2.27;;
2656;SDS011;1338;48.176;11.792;2023-02-25T15:02:04;2.30;;;2.13;;
2656;SDS011;1338;48.176;11.792;2023-02-25T15:04:58;2.80;;;2.60;;
2656;SDS011;1338;48.176;11.792;2023-02-25T15:07:52;2.87;;;2.47;;
2656;SDS011;1338;48.176;11.792;2023-02-25T15:10:36;2.90;;;2.30;;
2656;SDS011;1338;48.176;11.792;2023-02-25T15:13:16;2.63;;;2.17;;
2656;SDS011;1338;48.176;11.792;2023-02-25T15:16:13;2.30;;;1.90;;
2656;SDS011;1338;48.176;11.792;2023-02-25T15:19:06;2.90;;;2.40;;
2656;SDS011;1338;48.176;11.792;2023-02-25T15:21:54;2.47;;;2.27;;
2656;SDS011;1338;48.176;11.792;2023-02-25T15:24:43;3.00;;;2.67;;
2656;SDS011;1338;48.176;11.792;2023-02-25T15:27:34;2.40;;;2.20;;
2656;SDS011;1338;48.176;11.792;2023-02-25T15:30:10;3.40;;;2.47;;
2656;SDS011;1338;48.176;11.792;2023-02-25T15:35:54;2.97;;;2.70;;
2656;SDS011;1338;48.176;11.792;2023-02-25T15:38:41;3.83;;;2.40;;
2656;SDS011;1338;48.176;11.792;2023-02-25T15:41:35;2.50;;;2.30;;
2656;SDS011;1338;48.176;11.792;2023-02-25T15:44:25;2.60;;;2.40;;
2656;SDS011;1338;48.176;11.792;2023-02-25T15:47:11;2.63;;;2.33;;
2656;SDS011;1338;48.176;11.792;2023-02-25T15:49:49;4.30;;;2.60;;
2656;SDS011;1338;48.176;11.792;2023-02-25T15:55:34;3.13;;;2.80;;
2656;SDS011;1338;48.176;11.792;2023-02-25T16:01:25;2.77;;;2.47;;
2656;SDS011;1338;48.176;11.792;2023-02-25T16:04:05;2.93;;;2.73;;
2656;SDS011;1338;48.176;11.792;2023-02-25T16:06:53;4.27;;;2.87;;
2656;SDS011;1338;48.176;11.792;2023-02-25T16:09:21;3.43;;;2.97;;
2656;SDS011;1338;48.176;11.792;2023-02-25T16:11:51;3.07;;;2.87;;
2656;SDS011;1338;48.176;11.792;2023-02-25T16:14:21;2.40;;;2.20;;
2656;SDS011;1338;48.176;11.792;2023-02-25T16:16:54;3.03;;;2.73;;
2656;SDS011;1338;48.176;11.792;2023-02-25T16:19:24;2.83;;;2.53;;
2656;SDS011;1338;48.176;11.792;2023-02-25T16:21:56;2.43;;;2.23;;
2656;SDS011;1338;48.176;11.792;2023-02-25T16:24:26;4.43;;;2.20;;
2656;SDS011;1338;48.176;11.792;2023-02-25T16:26:58;3.13;;;2.53;;
2656;SDS011;1338;48.176;11.792;2023-02-25T16:29:34;2.40;;;2.20;;
2656;SDS011;1338;48.176;11.792;2023-02-25T16:32:11;2.40;;;2.20;;